createdAt,value
2019-02-19T00:01:05.699Z,5.07
2019-02-19T00:03:35.113Z,4.63
2019-02-19T00:06:04.577Z,3.90
2019-02-19T00:08:33.946Z,3.60
2019-02-19T00:11:03.408Z,4.00
2019-02-19T00:13:32.787Z,3.47
2019-02-19T00:16:02.217Z,3.70
2019-02-19T00:18:31.572Z,4.10
2019-02-19T00:21:01.063Z,2.97
2019-02-19T00:23:30.484Z,4.00
2019-02-19T00:25:59.906Z,3.17
2019-02-19T00:28:29.322Z,3.40
2019-02-19T00:30:58.747Z,3.30
2019-02-19T00:33:28.157Z,3.20
2019-02-19T00:35:57.547Z,3.07
2019-02-19T00:38:27.002Z,2.90
2019-02-19T00:40:56.374Z,3.00
2019-02-19T00:43:31.509Z,2.73
2019-02-19T00:46:00.902Z,2.53
2019-02-19T00:48:30.310Z,3.17
2019-02-19T00:50:59.677Z,3.67
2019-02-19T00:53:29.124Z,3.40
2019-02-19T00:55:58.521Z,3.17
2019-02-19T00:58:27.942Z,3.03
2019-02-19T01:00:57.314Z,2.73
2019-02-19T01:03:28.188Z,2.73
2019-02-19T01:05:57.586Z,3.70
2019-02-19T01:08:27.093Z,3.30
2019-02-19T01:10:56.446Z,3.37
2019-02-19T01:13:27.686Z,2.47
2019-02-19T01:15:57.338Z,3.47
2019-02-19T01:18:26.794Z,3.40
2019-02-19T01:20:56.193Z,2.80
2019-02-19T01:23:25.654Z,2.90
2019-02-19T01:25:55.150Z,3.80
2019-02-19T01:28:24.603Z,3.30
2019-02-19T01:30:54.115Z,2.83
2019-02-19T01:33:25.604Z,3.47
2019-02-19T01:35:54.714Z,2.63
2019-02-19T01:38:24.143Z,3.87
2019-02-19T01:40:53.526Z,3.30
2019-02-19T01:43:22.974Z,3.23
2019-02-19T01:45:52.367Z,3.23
2019-02-19T01:48:21.790Z,4.20
2019-02-19T01:50:51.152Z,3.23
2019-02-19T01:53:20.560Z,3.83
2019-02-19T01:55:50.000Z,3.87
2019-02-19T01:58:19.490Z,4.10
2019-02-19T02:00:48.882Z,3.73
2019-02-19T02:03:18.327Z,3.40
2019-02-19T02:05:47.686Z,3.23
2019-02-19T02:08:17.035Z,3.80
2019-02-19T02:10:46.431Z,3.17
2019-02-19T02:13:15.814Z,3.27
2019-02-19T02:15:45.202Z,2.53
2019-02-19T02:18:14.551Z,2.50
2019-02-19T02:20:43.940Z,2.77
2019-02-19T02:23:13.313Z,3.13
2019-02-19T02:25:42.710Z,2.13
2019-02-19T02:28:12.130Z,2.97
2019-02-19T02:30:41.613Z,2.60
2019-02-19T02:33:10.996Z,2.80
2019-02-19T02:35:40.380Z,2.87
2019-02-19T02:38:09.746Z,2.97
2019-02-19T02:40:39.144Z,2.60
2019-02-19T02:43:08.517Z,3.23
2019-02-19T02:45:37.924Z,3.37
2019-02-19T02:48:07.298Z,3.30
2019-02-19T02:50:36.744Z,3.23
2019-02-19T02:53:06.094Z,4.53
2019-02-19T02:55:35.667Z,4.30
2019-02-19T02:58:05.044Z,4.00
2019-02-19T03:00:34.569Z,3.13
2019-02-19T03:03:03.976Z,4.00
2019-02-19T03:05:33.578Z,3.43
2019-02-19T03:08:05.103Z,3.07
2019-02-19T03:10:34.503Z,3.00
2019-02-19T03:13:03.979Z,3.07
2019-02-19T03:15:33.427Z,3.00
2019-02-19T03:18:02.900Z,4.10
2019-02-19T03:20:32.306Z,3.23
2019-02-19T03:23:01.693Z,3.50
2019-02-19T03:25:31.114Z,3.00
2019-02-19T03:28:00.582Z,3.37
2019-02-19T03:30:30.048Z,3.23
2019-02-19T03:32:59.476Z,3.23
2019-02-19T03:35:28.974Z,2.37
2019-02-19T03:37:58.354Z,2.53
2019-02-19T03:40:27.715Z,2.80
2019-02-19T03:42:57.133Z,3.70
2019-02-19T03:45:26.539Z,2.60
2019-02-19T03:47:56.048Z,3.30
2019-02-19T03:50:25.399Z,2.57
2019-02-19T03:52:54.826Z,3.00
2019-02-19T03:55:24.195Z,3.87
2019-02-19T03:57:53.581Z,3.83
2019-02-19T04:00:22.958Z,3.00
2019-02-19T04:02:52.356Z,3.10
2019-02-19T04:05:21.743Z,2.83
2019-02-19T04:07:51.148Z,3.07
2019-02-19T04:10:20.667Z,2.70
2019-02-19T04:12:50.173Z,2.07
2019-02-19T04:15:19.564Z,3.20
2019-02-19T04:17:49.024Z,3.60
2019-02-19T04:20:18.468Z,3.00
2019-02-19T04:22:47.881Z,3.40
2019-02-19T04:25:17.265Z,2.70
2019-02-19T04:27:46.698Z,3.47
2019-02-19T04:30:16.065Z,3.60
2019-02-19T04:32:45.508Z,3.50
2019-02-19T04:35:14.878Z,3.00
2019-02-19T04:37:44.260Z,3.40
2019-02-19T04:40:13.693Z,3.73
2019-02-19T04:42:43.112Z,3.60
2019-02-19T04:45:12.666Z,3.50
2019-02-19T04:47:42.073Z,3.70
2019-02-19T04:50:11.519Z,4.10
2019-02-19T04:52:40.886Z,3.53
2019-02-19T04:55:10.321Z,3.87
2019-02-19T04:57:39.717Z,3.10
2019-02-19T05:00:11.216Z,3.60
2019-02-19T05:02:40.609Z,3.93
2019-02-19T05:05:10.031Z,3.20
2019-02-19T05:07:39.488Z,2.63
2019-02-19T05:10:09.023Z,3.47
2019-02-19T05:12:38.380Z,3.13
2019-02-19T05:15:07.953Z,3.50
2019-02-19T05:17:37.292Z,4.37
2019-02-19T05:20:07.534Z,3.17
2019-02-19T05:22:36.914Z,4.10
2019-02-19T05:25:06.442Z,3.50
2019-02-19T05:27:35.949Z,5.17
2019-02-19T05:30:05.502Z,4.40
2019-02-19T05:32:34.955Z,4.60
2019-02-19T05:35:04.376Z,5.43
2019-02-19T05:37:33.797Z,3.60
2019-02-19T05:40:03.166Z,4.00
2019-02-19T05:42:32.593Z,4.50
2019-02-19T05:45:02.011Z,3.13
2019-02-19T05:47:31.415Z,4.20
2019-02-19T05:50:00.840Z,4.27
2019-02-19T05:52:30.377Z,2.90
2019-02-19T05:54:59.889Z,4.43
2019-02-19T05:57:29.367Z,3.20
2019-02-19T05:59:58.753Z,3.50
2019-02-19T06:02:28.256Z,2.87
2019-02-19T06:04:57.603Z,3.23
2019-02-19T06:07:27.063Z,3.97
2019-02-19T06:09:56.416Z,3.67
2019-02-19T06:12:25.870Z,3.50
2019-02-19T06:14:55.229Z,5.23
2019-02-19T06:17:24.896Z,3.93
2019-02-19T06:19:55.028Z,3.83
2019-02-19T06:22:24.541Z,3.87
2019-02-19T06:24:53.955Z,5.00
2019-02-19T06:27:23.332Z,3.93
2019-02-19T06:29:52.753Z,3.50
2019-02-19T06:32:22.140Z,4.10
2019-02-19T06:34:51.609Z,3.80
2019-02-19T06:37:20.993Z,4.90
2019-02-19T06:39:50.458Z,3.13
2019-02-19T06:42:19.837Z,3.73
2019-02-19T06:44:49.289Z,3.97
2019-02-19T06:47:18.728Z,4.70
2019-02-19T06:49:48.135Z,4.50
2019-02-19T06:52:17.557Z,4.10
2019-02-19T06:54:47.007Z,4.70
2019-02-19T06:57:16.391Z,4.20
2019-02-19T06:59:45.787Z,4.40
2019-02-19T07:02:31.431Z,4.60
2019-02-19T07:05:02.415Z,4.37
2019-02-19T07:07:31.851Z,4.70
2019-02-19T07:10:01.264Z,5.30
2019-02-19T07:12:30.679Z,4.00
2019-02-19T07:15:00.311Z,5.00
2019-02-19T07:17:29.751Z,4.50
2019-02-19T07:19:59.208Z,4.20
2019-02-19T07:22:28.635Z,3.83
2019-02-19T07:24:58.114Z,3.70
2019-02-19T07:27:27.490Z,3.30
2019-02-19T07:29:56.929Z,4.07
2019-02-19T07:32:26.275Z,3.30
2019-02-19T07:34:55.712Z,3.43
2019-02-19T07:37:25.148Z,3.03
2019-02-19T07:39:54.759Z,3.47
2019-02-19T07:42:24.216Z,3.40
2019-02-19T07:44:53.627Z,3.00
2019-02-19T07:47:24.800Z,2.20
2019-02-19T07:49:54.139Z,2.53
2019-02-19T07:52:23.570Z,2.93
2019-02-19T07:54:52.969Z,2.53
2019-02-19T07:57:22.862Z,3.10
2019-02-19T07:59:52.281Z,3.00
2019-02-19T08:02:21.687Z,3.43
2019-02-19T08:04:51.072Z,2.87
2019-02-19T08:07:20.500Z,3.23
2019-02-19T08:09:49.862Z,3.20
2019-02-19T08:12:19.306Z,3.20
2019-02-19T08:14:48.710Z,3.17
2019-02-19T08:17:18.149Z,3.73
2019-02-19T08:19:48.755Z,5.50
2019-02-19T08:22:18.285Z,3.10
2019-02-19T08:24:47.656Z,4.60
2019-02-19T08:27:17.043Z,3.90
2019-02-19T08:29:46.420Z,3.80
2019-02-19T08:32:15.849Z,4.27
2019-02-19T08:34:45.211Z,4.20
2019-02-19T08:37:14.610Z,4.47
2019-02-19T08:39:43.980Z,4.57
2019-02-19T08:42:13.392Z,3.73
2019-02-19T08:44:42.738Z,5.27
2019-02-19T08:47:12.971Z,5.07
2019-02-19T08:49:43.012Z,4.97
2019-02-19T08:52:12.365Z,5.13
2019-02-19T08:54:41.791Z,5.10
2019-02-19T08:57:11.173Z,5.27
2019-02-19T08:59:40.598Z,4.93
2019-02-19T09:02:10.003Z,4.97
2019-02-19T09:04:39.434Z,5.67
2019-02-19T09:07:08.799Z,5.80
2019-02-19T09:09:38.238Z,5.97
2019-02-19T09:12:07.600Z,5.20
2019-02-19T09:14:36.992Z,6.23
2019-02-19T09:17:06.354Z,5.73
2019-02-19T09:19:35.817Z,5.23
2019-02-19T09:22:05.189Z,5.80
2019-02-19T09:24:34.572Z,4.57
2019-02-19T09:27:03.929Z,4.70
2019-02-19T09:29:33.337Z,7.57
2019-02-19T09:32:02.719Z,5.40
2019-02-19T09:34:32.114Z,4.97
2019-02-19T09:37:01.470Z,5.73
2019-02-19T09:39:30.910Z,5.40
2019-02-19T09:42:00.279Z,4.20
2019-02-19T09:44:29.692Z,5.00
2019-02-19T09:46:59.078Z,4.90
2019-02-19T09:49:28.570Z,5.37
2019-02-19T09:51:57.898Z,4.90
2019-02-19T09:54:27.334Z,5.30
2019-02-19T09:56:56.694Z,3.90
2019-02-19T09:59:26.078Z,5.10
2019-02-19T10:01:55.469Z,4.17
2019-02-19T10:04:24.826Z,4.90
2019-02-19T10:06:54.337Z,4.97
2019-02-19T10:09:23.835Z,4.60
2019-02-19T10:11:53.241Z,5.03
2019-02-19T10:14:22.782Z,5.50
2019-02-19T10:16:54.262Z,5.60
2019-02-19T10:19:25.994Z,5.10
2019-02-19T10:21:55.204Z,6.43
2019-02-19T10:24:24.746Z,5.00
2019-02-19T10:26:54.228Z,4.63
2019-02-19T10:29:23.590Z,5.60
2019-02-19T10:31:53.027Z,5.93
2019-02-19T10:34:22.430Z,6.17
2019-02-19T10:36:51.863Z,5.77
2019-02-19T10:39:21.237Z,5.93
2019-02-19T10:41:50.665Z,5.70
2019-02-19T10:44:20.237Z,5.43
2019-02-19T10:46:49.912Z,5.07
2019-02-19T10:49:19.457Z,7.07
2019-02-19T10:51:49.142Z,6.13
2019-02-19T10:54:18.592Z,6.30
2019-02-19T10:56:48.061Z,5.50
2019-02-19T10:59:17.512Z,6.10
2019-02-19T11:01:47.013Z,7.07
2019-02-19T11:04:16.378Z,6.37
2019-02-19T11:06:45.822Z,6.70
2019-02-19T11:09:15.202Z,5.47
2019-02-19T11:11:44.626Z,6.33
2019-02-19T11:14:14.081Z,5.70
2019-02-19T11:16:43.628Z,5.97
2019-02-19T11:19:12.990Z,7.23
2019-02-19T11:21:42.357Z,6.10
2019-02-19T11:24:11.817Z,6.30
2019-02-19T11:26:41.250Z,5.20
2019-02-19T11:29:10.774Z,5.53
2019-02-19T11:31:40.139Z,6.40
2019-02-19T11:34:09.547Z,5.33
2019-02-19T11:36:38.904Z,6.40
2019-02-19T11:39:08.368Z,6.10
2019-02-19T11:41:37.723Z,6.00
2019-02-19T11:44:07.114Z,5.60
2019-02-19T11:46:36.514Z,5.77
2019-02-19T11:49:05.990Z,6.47
2019-02-19T11:51:35.389Z,6.27
2019-02-19T11:54:04.845Z,5.80
2019-02-19T11:56:34.220Z,5.90
2019-02-19T11:59:03.640Z,5.00
2019-02-19T12:01:33.010Z,4.40
2019-02-19T12:04:02.477Z,5.30
2019-02-19T12:06:31.828Z,5.43
2019-02-19T12:09:01.240Z,3.00
2019-02-19T12:11:30.639Z,4.00
2019-02-19T12:14:00.049Z,1.73
2019-02-19T12:16:29.443Z,1.23
2019-02-19T12:18:58.835Z,0.87
2019-02-19T12:21:28.196Z,1.03
2019-02-19T12:23:57.701Z,1.17
2019-02-19T12:26:27.071Z,1.20
2019-02-19T12:28:56.525Z,0.93
2019-02-19T12:31:25.883Z,0.80
2019-02-19T12:33:55.239Z,1.43
2019-02-19T12:36:24.639Z,0.80
2019-02-19T12:38:53.980Z,1.10
2019-02-19T12:41:23.406Z,1.23
2019-02-19T12:43:52.838Z,1.20
2019-02-19T12:46:22.338Z,1.20
2019-02-19T12:48:54.737Z,0.97
2019-02-19T12:51:26.442Z,2.63
2019-02-19T12:53:54.145Z,1.43
2019-02-19T12:56:23.574Z,1.10
2019-02-19T12:58:52.930Z,1.30
2019-02-19T13:01:22.342Z,1.00
2019-02-19T13:03:51.699Z,1.30
2019-02-19T13:06:21.124Z,1.10
2019-02-19T13:08:50.560Z,1.03
2019-02-19T13:11:19.962Z,1.10
2019-02-19T13:13:49.330Z,0.87
2019-02-19T13:16:18.743Z,1.60
2019-02-19T13:18:48.193Z,1.03
2019-02-19T13:21:17.600Z,1.40
2019-02-19T13:23:47.006Z,1.23
2019-02-19T13:26:16.513Z,1.10
2019-02-19T13:28:45.931Z,1.13
2019-02-19T13:31:15.338Z,1.00
2019-02-19T13:33:44.790Z,1.07
2019-02-19T13:36:14.153Z,1.70
2019-02-19T13:38:43.584Z,1.10
2019-02-19T13:41:12.960Z,1.40
2019-02-19T13:43:42.432Z,1.00
2019-02-19T13:46:12.701Z,1.50
2019-02-19T13:48:42.140Z,1.00
2019-02-19T13:51:11.485Z,1.17
2019-02-19T13:54:05.805Z,1.70
2019-02-19T13:56:35.183Z,1.13
2019-02-19T13:59:04.569Z,1.33
2019-02-19T14:01:33.944Z,1.37
2019-02-19T14:04:03.334Z,1.23
2019-02-19T14:06:32.733Z,1.50
2019-02-19T14:09:02.150Z,1.90
2019-02-19T14:11:31.499Z,1.73
2019-02-19T14:14:18.753Z,2.10
2019-02-19T14:16:54.192Z,3.80
2019-02-19T14:19:57.972Z,2.20
2019-02-19T14:22:44.732Z,1.67
2019-02-19T14:25:33.019Z,0.90
2019-02-19T14:28:21.302Z,1.00
2019-02-19T14:31:09.640Z,0.80
2019-02-19T14:33:56.435Z,1.10
2019-02-19T14:36:43.258Z,1.00
2019-02-19T14:39:30.601Z,1.20
2019-02-19T14:42:17.387Z,0.90
2019-02-19T14:45:05.661Z,0.93
2019-02-19T14:47:52.874Z,1.10
2019-02-19T14:50:59.601Z,0.70
2019-02-19T14:53:50.642Z,1.17
2019-02-19T14:56:36.650Z,1.50
2019-02-19T14:59:30.683Z,1.20
2019-02-19T15:02:16.646Z,1.57
2019-02-19T15:05:11.640Z,1.33
2019-02-19T15:07:46.732Z,1.10
2019-02-19T15:10:50.101Z,1.20
2019-02-19T15:13:37.438Z,1.40
2019-02-19T15:16:22.999Z,1.40
2019-02-19T15:19:20.197Z,1.17
2019-02-19T15:21:57.617Z,1.43
2019-02-19T15:24:45.919Z,1.30
2019-02-19T15:27:37.502Z,1.20
2019-02-19T15:30:15.619Z,1.10
2019-02-19T15:33:09.730Z,0.90
2019-02-19T15:35:57.994Z,1.53
2019-02-19T15:38:55.432Z,1.13
2019-02-19T15:41:42.402Z,1.00
2019-02-19T15:44:28.694Z,1.10
2019-02-19T15:47:19.529Z,1.67
2019-02-19T15:50:13.693Z,1.43
2019-02-19T15:53:04.828Z,1.13
2019-02-19T15:55:53.677Z,1.40
2019-02-19T15:58:54.540Z,1.40
2019-02-19T16:01:42.397Z,1.00
2019-02-19T16:04:29.564Z,1.20
2019-02-19T16:07:17.854Z,0.93
2019-02-19T16:10:09.165Z,1.77
2019-02-19T16:12:56.273Z,2.10
2019-02-19T16:15:35.917Z,1.53
2019-02-19T16:18:30.044Z,1.10
2019-02-19T16:21:24.245Z,1.50
2019-02-19T16:24:24.815Z,1.20
2019-02-19T16:27:11.903Z,1.80
2019-02-19T16:30:03.998Z,1.00
2019-02-19T16:32:43.023Z,2.00
2019-02-19T16:35:37.089Z,2.00
2019-02-19T16:38:43.783Z,1.57
2019-02-19T16:41:30.923Z,1.80
2019-02-19T16:44:25.312Z,1.13
2019-02-19T16:47:31.630Z,1.60
2019-02-19T16:50:25.813Z,1.27
2019-02-19T16:53:13.050Z,1.50
2019-02-19T16:56:13.282Z,1.53
2019-02-19T16:59:07.225Z,1.57
2019-02-19T17:01:42.796Z,1.23
2019-02-19T17:04:31.122Z,1.90
2019-02-19T17:07:18.364Z,3.13
2019-02-19T17:10:15.742Z,3.27
2019-02-19T17:12:54.360Z,2.60
2019-02-19T17:15:41.471Z,3.20
2019-02-19T17:18:35.891Z,4.03
2019-02-19T17:21:22.973Z,3.60
2019-02-19T17:24:17.368Z,3.67
2019-02-19T17:27:08.652Z,2.30
2019-02-19T17:29:50.022Z,1.80
2019-02-19T17:32:40.846Z,2.30
2019-02-19T17:35:29.140Z,2.43
2019-02-19T17:38:14.862Z,1.97
2019-02-19T17:40:53.983Z,2.03
2019-02-19T17:43:34.544Z,2.47
2019-02-19T17:46:25.900Z,1.60
2019-02-19T17:49:13.205Z,2.27
2019-02-19T17:52:00.683Z,3.30
2019-02-19T17:55:01.045Z,3.07
2019-02-19T17:57:47.027Z,3.10
2019-02-19T18:00:31.803Z,2.97
2019-02-19T18:03:18.699Z,3.33
2019-02-19T18:06:05.772Z,3.40
2019-02-19T18:08:49.525Z,3.53
2019-02-19T18:11:40.844Z,3.60
2019-02-19T18:14:29.084Z,5.80
2019-02-19T18:17:11.561Z,6.23
2019-02-19T18:19:40.903Z,4.93
2019-02-19T18:22:10.310Z,5.43
2019-02-19T18:24:39.647Z,2.90
2019-02-19T18:27:09.039Z,3.33
2019-02-19T18:29:38.397Z,8.73
2019-02-19T18:32:07.789Z,4.10
2019-02-19T18:34:37.140Z,2.73
2019-02-19T18:37:06.497Z,3.40
2019-02-19T18:39:35.912Z,4.03
2019-02-19T18:42:05.279Z,3.80
2019-02-19T18:44:34.805Z,3.00
2019-02-19T18:47:08.194Z,2.53
2019-02-19T18:49:37.736Z,2.80
2019-02-19T18:52:07.296Z,2.30
2019-02-19T18:54:36.684Z,2.63
2019-02-19T18:57:06.056Z,2.97
2019-02-19T18:59:35.576Z,2.20
2019-02-19T19:02:04.932Z,2.53
2019-02-19T19:04:34.362Z,2.50
2019-02-19T19:07:03.763Z,2.00
2019-02-19T19:09:33.288Z,2.27
2019-02-19T19:12:02.634Z,2.43
2019-02-19T19:14:32.045Z,2.77
2019-02-19T19:17:01.383Z,2.40
2019-02-19T19:19:30.799Z,2.20
2019-02-19T19:22:00.205Z,3.97
2019-02-19T19:24:30.119Z,3.50
2019-02-19T19:26:59.556Z,3.33
2019-02-19T19:29:29.481Z,3.37
2019-02-19T19:31:58.947Z,3.57
2019-02-19T19:34:28.316Z,6.30
2019-02-19T19:36:57.754Z,4.37
2019-02-19T19:39:27.601Z,3.57
2019-02-19T19:41:57.566Z,3.70
2019-02-19T19:44:26.973Z,3.03
2019-02-19T19:46:56.362Z,2.70
2019-02-19T19:49:25.727Z,2.80
2019-02-19T19:51:55.225Z,3.17
2019-02-19T19:54:25.153Z,2.80
2019-02-19T19:56:54.535Z,2.77
2019-02-19T19:59:23.873Z,2.33
2019-02-19T20:01:53.277Z,2.70
2019-02-19T20:04:22.700Z,2.47
2019-02-19T20:06:52.066Z,2.50
2019-02-19T20:09:21.454Z,2.00
2019-02-19T20:11:50.883Z,1.80
2019-02-19T20:14:20.247Z,2.53
2019-02-19T20:16:49.622Z,3.10
2019-02-19T20:19:19.041Z,1.83
2019-02-19T20:21:48.422Z,3.37
2019-02-19T20:24:18.431Z,2.70
2019-02-19T20:26:47.798Z,3.03
2019-02-19T20:29:17.213Z,3.00
2019-02-19T20:31:46.626Z,3.00
2019-02-19T20:34:16.135Z,2.17
2019-02-19T20:36:45.513Z,2.37
2019-02-19T20:39:14.918Z,2.80
2019-02-19T20:41:44.296Z,2.30
2019-02-19T20:44:13.762Z,2.40
2019-02-19T20:46:43.179Z,2.30
2019-02-19T20:49:12.566Z,2.70
2019-02-19T20:51:41.920Z,2.40
2019-02-19T20:54:11.367Z,2.50
2019-02-19T20:56:40.898Z,2.03
2019-02-19T20:59:10.408Z,2.13
2019-02-19T21:01:39.803Z,2.70
2019-02-19T21:04:09.212Z,2.20
2019-02-19T21:06:38.548Z,2.70
2019-02-19T21:09:08.233Z,3.47
2019-02-19T21:11:37.729Z,2.40
2019-02-19T21:14:07.106Z,2.43
2019-02-19T21:16:36.561Z,2.90
2019-02-19T21:19:05.907Z,3.00
2019-02-19T21:21:35.282Z,3.53
2019-02-19T21:24:04.616Z,3.10
2019-02-19T21:26:33.994Z,3.77
2019-02-19T21:29:03.331Z,3.37
2019-02-19T21:31:32.778Z,2.60
2019-02-19T21:34:02.113Z,3.00
2019-02-19T21:36:31.542Z,2.30
2019-02-19T21:39:00.912Z,2.80
2019-02-19T21:41:30.335Z,2.30
2019-02-19T21:43:59.673Z,3.27
2019-02-19T21:46:29.076Z,4.63
2019-02-19T21:48:58.425Z,3.23
2019-02-19T21:51:28.242Z,3.40
2019-02-19T21:53:57.725Z,3.93
2019-02-19T21:56:27.094Z,4.93
2019-02-19T21:58:56.513Z,4.33
2019-02-19T22:01:25.907Z,4.80
2019-02-19T22:03:55.246Z,4.10
2019-02-19T22:06:24.604Z,4.07
2019-02-19T22:08:53.963Z,4.20
2019-02-19T22:11:23.344Z,4.73
2019-02-19T22:13:52.722Z,3.57
2019-02-19T22:16:22.056Z,4.23
2019-02-19T22:18:51.443Z,4.23
2019-02-19T22:21:39.649Z,2.40
2019-02-19T22:24:09.036Z,2.87
2019-02-19T22:26:38.370Z,2.50
2019-02-19T22:29:07.760Z,2.40
2019-02-19T22:31:37.100Z,3.03
2019-02-19T22:34:06.488Z,3.10
2019-02-19T22:36:35.832Z,2.67
2019-02-19T22:39:06.500Z,2.90
2019-02-19T22:41:36.008Z,3.40
2019-02-19T22:44:05.430Z,3.50
2019-02-19T22:46:34.767Z,3.57
2019-02-19T22:49:04.197Z,3.57
2019-02-19T22:51:33.537Z,2.60
2019-02-19T22:54:07.889Z,2.47
2019-02-19T22:56:42.463Z,2.70
2019-02-19T22:59:11.887Z,2.40
2019-02-19T23:01:47.729Z,2.30
2019-02-19T23:04:17.154Z,2.90
2019-02-19T23:06:46.490Z,2.77
2019-02-19T23:09:15.883Z,2.80
2019-02-19T23:11:45.270Z,3.43
2019-02-19T23:14:14.699Z,2.90
2019-02-19T23:16:44.037Z,3.17
2019-02-19T23:19:13.422Z,2.60
2019-02-19T23:21:42.772Z,2.43
2019-02-19T23:24:12.149Z,2.37
2019-02-19T23:26:41.493Z,2.20
2019-02-19T23:29:10.923Z,2.80
2019-02-19T23:31:40.233Z,2.63
2019-02-19T23:34:09.579Z,2.27
2019-02-19T23:36:43.302Z,4.03
2019-02-19T23:39:12.692Z,3.63
2019-02-19T23:41:42.027Z,2.90
2019-02-19T23:44:11.383Z,4.03
2019-02-19T23:46:40.811Z,2.83
2019-02-19T23:49:10.147Z,2.27
2019-02-19T23:51:39.569Z,2.37
2019-02-19T23:54:08.938Z,2.10
2019-02-19T23:56:38.370Z,2.27
2019-02-19T23:59:07.721Z,2.27
